Time;durP1;ratioP1;P1;durP2;ratioP2;P2;SDS_P1;SDS_P2;PMS_P1;PMS_P2;Temp;Humidity;BMP_temperature;BMP_pressure;BME280_temperature;BME280_humidity;BME280_pressure;Samples;Min_cycle;Max_cycle;Signal;HPM_P1;HPM_P2
2022/01/11 00:00:35;;;;;;;6.97;3.72;;;;;;;-4.83;100.00;100222.27;1777177;80;20971;-66
2022/01/11 00:03:04;;;;;;;7.87;3.90;;;;;;;-4.82;100.00;100223.95;1781513;79;21050;-66
2022/01/11 00:05:39;;;;;;;6.85;3.58;;;;;;;-4.85;100.00;100220.26;1778824;80;21384;-66
2022/01/11 00:08:03;;;;;;;7.03;3.50;;;;;;;-4.91;100.00;100224.89;1777858;80;21042;-66
2022/01/11 00:10:38;;;;;;;5.97;3.40;;;;;;;-5.01;100.00;100229.51;1778528;80;20997;-66
2022/01/11 00:13:01;;;;;;;6.85;3.58;;;;;;;-5.06;100.00;100237.95;1777605;80;21031;-66
2022/01/11 00:15:29;;;;;;;6.83;3.85;;;;;;;-5.06;100.00;100233.13;1777884;80;20943;-66
2022/01/11 00:17:59;;;;;;;7.30;3.47;;;;;;;-5.13;100.00;100239.58;1772835;80;21042;-66
2022/01/11 00:20:28;;;;;;;7.03;3.10;;;;;;;-5.18;100.00;100241.05;1749057;82;20931;-64
2022/01/11 00:24:27;;;;;;;6.33;3.12;;;;;;;-5.20;100.00;100245.18;1751829;81;21605;-66
2022/01/11 00:25:27;;;;;;;7.08;3.33;;;;;;;-5.18;100.00;100247.20;1755185;81;20967;-67
2022/01/11 00:27:53;;;;;;;7.37;3.10;;;;;;;-5.20;100.00;100255.80;1746127;81;21566;-66
2022/01/11 00:30:20;;;;;;;7.17;3.55;;;;;;;-5.21;100.00;100250.14;1761445;80;21491;-66
2022/01/11 00:32:51;;;;;;;;;;;;;;;-5.19;100.00;100251.33;1774219;80;21078;-66
2022/01/11 00:35:16;;;;;;;7.65;3.55;;;;;;;-5.20;100.00;100253.14;1767787;81;20104;-66
2022/01/11 00:37:44;;;;;;;6.37;3.40;;;;;;;-5.24;100.00;100259.75;1761548;81;21672;-66
2022/01/11 00:40:11;;;;;;;6.37;3.42;;;;;;;-5.24;100.00;100269.04;1774367;81;20945;-66
2022/01/11 00:42:38;;;;;;;5.45;2.70;;;;;;;-5.22;100.00;100263.59;1759464;81;21015;-66
2022/01/11 00:45:05;;;;;;;5.70;3.15;;;;;;;-5.20;100.00;100265.09;1757707;81;20932;-66
2022/01/11 00:47:32;;;;;;;6.55;2.92;;;;;;;-5.20;100.00;100270.89;1707964;83;21030;-66
2022/01/11 00:49:58;;;;;;;;;;;;;;;-5.20;100.00;100271.72;1759551;81;20988;-66
2022/01/11 00:52:25;;;;;;;6.65;3.22;;;;;;;-5.19;100.00;100273.89;1764752;81;20146;-66
2022/01/11 00:54:51;;;;;;;6.92;3.25;;;;;;;-5.25;100.00;100267.89;1754938;81;20968;-66
2022/01/11 00:57:17;;;;;;;6.10;3.33;;;;;;;-5.26;100.00;100262.23;1738940;81;21054;-66
2022/01/11 00:59:44;;;;;;;6.80;3.40;;;;;;;-5.27;100.00;100264.55;1757524;81;21039;-66
2022/01/11 01:02:10;;;;;;;6.75;3.42;;;;;;;-5.27;100.00;100277.81;1750781;81;21067;-66
2022/01/11 01:04:37;;;;;;;6.65;3.40;;;;;;;-5.25;100.00;100273.20;1771840;81;20976;-66
2022/01/11 01:07:04;;;;;;;6.90;3.70;;;;;;;-5.28;100.00;100281.48;1769323;80;20939;-66
2022/01/11 01:09:45;;;;;;;5.92;3.20;;;;;;;-5.27;100.00;100279.14;1768842;81;21058;-65
2022/01/11 01:12:01;;;;;;;7.15;3.40;;;;;;;-5.24;100.00;100282.80;1715540;83;21043;-65
2022/01/11 01:14:28;;;;;;;6.40;3.70;;;;;;;-5.23;100.00;100281.82;1695072;84;21610;-66
2022/01/11 01:16:54;;;;;;;;;;;;;;;-5.25;100.00;100274.03;1757644;80;21005;-66
2022/01/11 01:19:27;;;;;;;8.15;3.60;;;;;;;-5.23;100.00;100277.84;1756017;81;20403;-66
2022/01/11 01:21:55;;;;;;;6.75;3.60;;;;;;;-5.26;100.00;100276.83;1719365;83;21074;-66
2022/01/11 01:24:22;;;;;;;7.22;3.67;;;;;;;-5.23;100.00;100280.00;1711274;83;21588;-66
2022/01/11 01:26:48;;;;;;;6.35;3.62;;;;;;;-5.24;100.00;100279.66;1746377;82;21001;-66
2022/01/11 01:29:15;;;;;;;7.42;3.50;;;;;;;-5.24;100.00;100286.30;1724484;82;21599;-66
2022/01/11 01:31:41;;;;;;;7.00;3.50;;;;;;;-5.23;100.00;100289.78;1775995;81;21620;-66
2022/01/11 01:34:08;;;;;;;6.78;3.52;;;;;;;-5.22;100.00;100296.77;1773121;81;21031;-66
2022/01/11 01:36:34;;;;;;;7.67;3.65;;;;;;;-5.20;100.00;100300.08;1731358;82;21044;-67
2022/01/11 01:39:00;;;;;;;7.33;3.70;;;;;;;-5.20;100.00;100305.39;1756245;80;21062;-66
2022/01/11 01:41:27;;;;;;;;;;;;;;;-5.21;100.00;100295.27;1780176;81;21448;-66
2022/01/11 01:43:56;;;;;;;8.48;4.17;;;;;;;-5.22;100.00;100306.89;1765650;81;20109;-66
2022/01/11 01:46:22;;;;;;;7.62;3.45;;;;;;;-5.28;100.00;100306.17;1733599;82;21031;-66
2022/01/11 01:48:49;;;;;;;7.22;3.72;;;;;;;-5.28;100.00;100311.48;1710883;84;21669;-66
2022/01/11 01:51:16;;;;;;;6.05;3.33;;;;;;;-5.26;100.00;100309.52;1711431;83;20980;-66
2022/01/11 01:53:47;;;;;;;7.08;3.35;;;;;;;-5.23;100.00;100315.00;1702330;84;21116;-66
2022/01/11 01:56:15;;;;;;;7.12;3.08;;;;;;;-5.19;100.00;100310.56;1701368;84;21035;-66
2022/01/11 01:58:42;;;;;;;7.17;3.67;;;;;;;-5.16;100.00;100317.36;1706805;84;21740;-65
2022/01/11 02:01:09;;;;;;;7.20;3.27;;;;;;;-5.17;100.00;100311.73;1775243;80;21466;-66
2022/01/11 02:03:40;;;;;;;6.00;3.47;;;;;;;-5.19;100.00;100310.56;1775882;81;21019;-66
2022/01/11 02:06:08;;;;;;;5.65;3.17;;;;;;;-5.18;100.00;100306.92;1774553;81;21519;-65
2022/01/11 02:08:35;;;;;;;6.42;3.72;;;;;;;-5.17;100.00;100316.53;1762455;81;21004;-66
2022/01/11 02:11:01;;;;;;;;;;;;;;;-5.19;100.00;100316.36;1739427;82;20990;-67
2022/01/11 02:13:28;;;;;;;8.93;3.90;;;;;;;-5.18;100.00;100315.37;1723360;82;20099;-66
2022/01/11 02:15:55;;;;;;;7.80;3.60;;;;;;;-5.22;100.00;100316.67;1728790;83;20995;-66
2022/01/11 02:18:25;;;;;;;6.50;3.40;;;;;;;-5.20;100.00;100320.83;1726502;83;21062;-66
2022/01/11 02:20:58;;;;;;;7.42;3.72;;;;;;;-5.19;100.00;100321.17;1723411;83;21541;-65
2022/01/11 02:23:28;;;;;;;9.15;3.90;;;;;;;-5.19;100.00;100324.31;1708776;82;21051;-66
2022/01/11 02:25:54;;;;;;;7.15;3.60;;;;;;;-5.20;100.00;100326.62;1718854;82;20987;-66
2022/01/11 02:28:23;;;;;;;7.28;4.17;;;;;;;-5.21;100.00;100322.33;1717854;82;21511;-66
2022/01/11 02:30:50;;;;;;;7.30;4.17;;;;;;;-5.22;100.00;100321.49;1720159;82;21491;-65
2022/01/11 02:33:34;;;;;;;7.97;4.10;;;;;;;-5.19;100.00;100319.01;1690419;83;21074;-66
2022/01/11 02:35:50;;;;;;;7.40;3.58;;;;;;;-5.17;100.00;100325.02;1712243;82;21475;-66
2022/01/11 02:38:17;;;;;;;7.30;3.83;;;;;;;-5.17;100.00;100325.81;1725148;82;21122;-66
2022/01/11 02:40:44;;;;;;;7.60;3.67;;;;;;;-5.15;100.00;100321.20;1699759;83;21439;-66
2022/01/11 02:43:11;;;;;;;7.62;3.72;;;;;;;-5.14;100.00;100324.70;1699435;83;21052;-66
2022/01/11 02:45:37;;;;;;;7.70;4.00;;;;;;;-5.19;100.00;100323.83;1679022;83;20995;-66
2022/01/11 02:48:05;;;;;;;6.70;3.77;;;;;;;-5.19;100.00;100334.45;1727293;82;21561;-66
2022/01/11 02:50:33;;;;;;;9.08;4.03;;;;;;;-5.17;100.00;100324.49;1717317;83;20958;-65
2022/01/11 02:52:59;;;;;;;8.95;4.17;;;;;;;-5.19;100.00;100328.30;1711836;83;21541;-66
2022/01/11 02:55:25;;;;;;;7.62;3.50;;;;;;;-5.20;100.00;100334.59;1716281;82;20970;-66
2022/01/11 02:57:52;;;;;;;7.83;4.42;;;;;;;-5.20;100.00;100330.12;1714871;82;21072;-66
2022/01/11 03:00:21;;;;;;;7.47;3.80;;;;;;;-5.18;100.00;100333.95;1725862;82;21019;-66
2022/01/11 03:02:48;;;;;;;7.33;3.72;;;;;;;-5.18;100.00;100331.30;1716220;83;21019;-66
2022/01/11 03:05:16;;;;;;;6.40;3.50;;;;;;;-5.15;100.00;100342.93;1724160;83;21074;-66
2022/01/11 03:07:43;;;;;;;7.45;3.35;;;;;;;-5.14;100.00;100330.84;1728790;82;21019;-66
2022/01/11 03:10:33;;;;;;;6.25;3.40;;;;;;;-5.13;100.00;100341.77;1699872;83;21581;-66
2022/01/11 03:12:45;;;;;;;6.33;3.55;;;;;;;-5.12;100.00;100341.28;1694594;82;21772;-66
2022/01/11 03:15:13;;;;;;;;;;;;;;;-5.10;100.00;100341.45;1781406;80;21002;-66
2022/01/11 03:17:40;;;;;;;6.42;3.95;;;;;;;-5.13;100.00;100336.47;1740259;81;20137;-67
2022/01/11 03:20:08;;;;;;;12.37;4.95;;;;;;;-5.17;100.00;100339.09;1772232;81;21011;-66
2022/01/11 03:22:34;;;;;;;;;;;;;;;-5.17;100.00;100344.92;1749112;81;21887;-65
2022/01/11 03:25:01;;;;;;;7.22;3.77;;;;;;;-5.13;100.00;100346.25;1771317;80;20128;-66
2022/01/11 03:27:29;;;;;;;10.38;4.20;;;;;;;-5.14;100.00;100349.42;1770920;81;21047;-66
2022/01/11 03:29:55;;;;;;;7.47;3.87;;;;;;;-5.13;100.00;100355.54;1775379;80;21467;-66
2022/01/11 03:32:22;;;;;;;9.23;4.28;;;;;;;-5.14;100.00;100353.89;1769526;81;21083;-66
2022/01/11 03:34:48;;;;;;;8.33;3.80;;;;;;;-5.13;100.00;100352.88;1763000;81;21517;-66
2022/01/11 03:37:17;;;;;;;;;;;;;;;-5.13;100.00;100359.52;1774871;81;21031;-66
2022/01/11 03:39:44;;;;;;;6.17;3.22;;;;;;;-5.15;100.00;100354.88;1778335;81;20108;-66
2022/01/11 03:42:11;;;;;;;8.38;3.55;;;;;;;-5.16;100.00;100363.81;1773270;81;21078;-66
2022/01/11 03:44:37;;;;;;;6.28;3.25;;;;;;;-5.14;100.00;100361.37;1768092;81;21538;-64
2022/01/11 03:47:05;;;;;;;7.83;3.67;;;;;;;-5.13;100.00;100367.48;1769965;81;20968;-66
2022/01/11 03:49:32;;;;;;;8.60;4.03;;;;;;;-5.11;100.00;100372.16;1778035;81;21031;-66
2022/01/11 03:51:59;;;;;;;6.12;3.37;;;;;;;-5.14;100.00;100371.98;1770882;81;20951;-66
2022/01/11 03:54:43;;;;;;;6.90;3.50;;;;;;;-5.14;100.00;100367.17;1777562;81;21046;-66
2022/01/11 03:57:10;;;;;;;7.65;3.75;;;;;;;-5.16;100.00;100371.30;1776625;80;21054;-66
2022/01/11 03:59:38;;;;;;;7.70;3.40;;;;;;;-5.15;100.00;100369.47;1752531;80;21080;-66
2022/01/11 04:02:06;;;;;;;5.87;3.25;;;;;;;-5.13;100.00;100379.43;1771325;81;21906;-66
2022/01/11 04:04:33;;;;;;;6.62;4.05;;;;;;;-5.15;100.00;100380.09;1777794;81;21558;-66
2022/01/11 04:07:00;;;;;;;6.35;3.42;;;;;;;-5.15;100.00;100384.08;1749818;81;21567;-66
2022/01/11 04:09:28;;;;;;;6.95;3.55;;;;;;;-5.13;100.00;100384.73;1763651;80;20973;-66
2022/01/11 04:11:55;;;;;;;7.17;3.72;;;;;;;-5.12;100.00;100385.09;1767350;81;20924;-66
2022/01/11 04:14:22;;;;;;;7.22;3.87;;;;;;;-5.11;100.00;100384.94;1757789;81;21584;-66
2022/01/11 04:16:49;;;;;;;6.28;3.72;;;;;;;-5.08;100.00;100389.94;1768404;81;21023;-66
2022/01/11 04:19:15;;;;;;;7.42;4.12;;;;;;;-5.07;100.00;100385.47;1744466;81;21018;-66
2022/01/11 04:21:42;;;;;;;7.10;3.87;;;;;;;-5.10;100.00;100399.86;1775380;80;21015;-66
2022/01/11 04:24:11;;;;;;;6.10;3.47;;;;;;;-5.09;100.00;100399.37;1780416;80;21604;-66
2022/01/11 04:26:38;;;;;;;7.40;4.35;;;;;;;-5.07;100.00;100400.06;1785417;80;20975;-66
2022/01/11 04:29:05;;;;;;;6.17;3.50;;;;;;;-5.08;100.00;100398.39;1781453;80;21671;-66
2022/01/11 04:31:32;;;;;;;7.45;3.98;;;;;;;-5.07;100.00;100401.39;1782810;80;21018;-66
2022/01/11 04:33:58;;;;;;;;;;;;;;;-5.06;100.00;100399.89;1785005;79;21094;-65
2022/01/11 04:36:25;;;;;;;5.65;3.15;;;;;;;-5.08;100.00;100404.54;1775637;80;20132;-69
2022/01/11 04:38:53;;;;;;;6.95;3.60;;;;;;;-5.13;100.00;100407.30;1762571;80;21568;-67
2022/01/11 04:41:19;;;;;;;6.75;3.70;;;;;;;-5.12;100.00;100408.98;1779454;80;21467;-67
2022/01/11 04:43:47;;;;;;;8.45;3.25;;;;;;;-5.11;100.00;100408.84;1757314;80;21597;-66
2022/01/11 04:46:18;;;;;;;6.78;3.60;;;;;;;-5.08;100.00;100415.65;1786463;80;20960;-67
2022/01/11 04:48:42;;;;;;;6.70;3.22;;;;;;;-5.10;100.00;100413.66;1783345;80;21509;-67
2022/01/11 04:51:08;;;;;;;5.65;2.98;;;;;;;-5.10;100.00;100414.98;1775012;80;21459;-67
2022/01/11 04:53:35;;;;;;;;;;;;;;;-5.07;100.00;100421.31;1781821;80;21032;-67
2022/01/11 04:56:02;;;;;;;5.20;2.83;;;;;;;-5.06;100.00;100416.31;1775713;80;20150;-66
2022/01/11 04:58:29;;;;;;;7.90;3.05;;;;;;;-5.11;100.00;100427.91;1783599;80;20975;-65
2022/01/11 05:00:55;;;;;;;5.15;2.92;;;;;;;-5.09;100.00;100425.92;1755250;80;21514;-65
2022/01/11 05:03:23;;;;;;;6.58;3.65;;;;;;;-5.08;100.00;100427.11;1784410;80;21082;-65
2022/01/11 05:05:51;;;;;;;6.62;3.83;;;;;;;-5.07;100.00;100421.31;1785988;80;21537;-66
2022/01/11 05:08:17;;;;;;;5.95;3.10;;;;;;;-5.07;100.00;100436.75;1781051;80;21010;-65
2022/01/11 05:10:44;;;;;;;5.80;2.83;;;;;;;-5.04;100.00;100428.95;1786667;80;21014;-66
2022/01/11 05:13:12;;;;;;;5.35;3.00;;;;;;;-5.02;100.00;100425.64;1785206;80;21491;-65
2022/01/11 05:15:39;;;;;;;5.37;3.35;;;;;;;-4.99;100.00;100431.16;1773738;80;21562;-65
2022/01/11 05:18:07;;;;;;;5.90;2.98;;;;;;;-4.97;100.00;100436.64;1780216;80;21022;-65
2022/01/11 05:20:36;;;;;;;5.12;2.85;;;;;;;-4.93;100.00;100433.18;1755036;80;21042;-65
2022/01/11 05:23:03;;;;;;;6.42;2.90;;;;;;;-4.91;100.00;100434.69;1785720;79;21452;-65
2022/01/11 05:25:29;;;;;;;6.25;3.12;;;;;;;-4.87;100.00;100444.50;1786523;80;21006;-65
2022/01/11 05:27:56;;;;;;;;;;;;;;;-4.81;100.00;100446.52;1739612;82;21051;-65
2022/01/11 05:30:22;;;;;;;7.03;3.58;;;;;;;-4.83;100.00;100457.32;1712902;83;20109;-65
2022/01/11 05:32:49;;;;;;;5.58;2.98;;;;;;;-4.85;100.00;100454.49;1761782;80;21027;-66
2022/01/11 05:35:16;;;;;;;6.70;2.90;;;;;;;-4.85;100.00;100451.31;1778776;80;21042;-65
2022/01/11 05:37:43;;;;;;;5.60;2.62;;;;;;;-4.81;100.00;100457.15;1784892;80;21046;-66
2022/01/11 05:40:10;;;;;;;6.47;3.08;;;;;;;-4.82;100.00;100461.66;1786483;80;20999;-66
2022/01/11 05:42:37;;;;;;;6.42;3.08;;;;;;;-4.82;100.00;100460.33;1754522;80;21059;-66
2022/01/11 05:45:04;;;;;;;5.35;3.12;;;;;;;-4.84;100.00;100468.92;1772713;80;21063;-66
2022/01/11 05:47:31;;;;;;;7.15;3.52;;;;;;;-4.81;100.00;100481.89;1784688;80;21015;-65
2022/01/11 05:49:59;;;;;;;7.65;3.55;;;;;;;-4.80;100.00;100474.77;1775309;80;20984;-65
2022/01/11 05:52:27;;;;;;;6.00;3.22;;;;;;;-4.81;100.00;100481.89;1755577;81;21090;-65
2022/01/11 05:54:53;;;;;;;;;;;;;;;-4.83;100.00;100487.86;1758323;82;21006;-65
2022/01/11 05:57:20;;;;;;;7.15;3.20;;;;;;;-4.84;100.00;100488.84;1767876;80;20105;-65
2022/01/11 05:59:46;;;;;;;8.03;3.98;;;;;;;-4.85;100.00;100491.16;1780916;80;21549;-66
2022/01/11 06:02:13;;;;;;;8.78;3.55;;;;;;;-4.82;100.00;100494.02;1786129;80;21023;-65
2022/01/11 06:04:39;;;;;;;7.28;3.58;;;;;;;-4.81;100.00;100494.33;1773930;80;20987;-66
2022/01/11 06:07:05;;;;;;;12.07;5.78;;;;;;;-4.83;100.00;100497.16;1782334;80;21074;-66
2022/01/11 06:09:33;;;;;;;11.15;5.67;;;;;;;-4.82;100.00;100508.14;1778333;80;21019;-67
2022/01/11 06:12:00;;;;;;;11.70;5.17;;;;;;;-4.80;100.00;100503.98;1752832;81;21015;-66
2022/01/11 06:14:26;;;;;;;10.65;5.33;;;;;;;-4.75;100.00;100512.33;1764744;80;21549;-66
2022/01/11 06:16:53;;;;;;;10.40;5.15;;;;;;;-4.71;100.00;100509.70;1755968;81;21042;-66
2022/01/11 06:19:19;;;;;;;8.73;4.67;;;;;;;-4.68;100.00;100508.06;1755864;82;21644;-66
2022/01/11 06:21:50;;;;;;;9.55;4.85;;;;;;;-4.69;100.00;100513.03;1753914;81;21038;-66
2022/01/11 06:24:17;;;;;;;8.60;4.05;;;;;;;-4.68;100.00;100514.22;1761287;80;21079;-66
2022/01/11 06:26:43;;;;;;;8.83;4.35;;;;;;;-4.67;100.00;100519.84;1763381;81;21026;-66
2022/01/11 06:29:10;;;;;;;8.23;4.33;;;;;;;-4.66;100.00;100518.87;1743719;81;21038;-66
2022/01/11 06:31:37;;;;;;;7.45;4.22;;;;;;;-4.64;100.00;100519.53;1763136;81;21818;-66
2022/01/11 06:34:04;;;;;;;7.03;4.45;;;;;;;-4.63;100.00;100513.23;1755779;81;21058;-65
2022/01/11 06:36:32;;;;;;;7.50;4.17;;;;;;;-4.63;100.00;100518.55;1756853;81;20984;-66
2022/01/11 06:38:58;;;;;;;7.90;4.20;;;;;;;-4.62;100.00;100528.20;1778397;81;21059;-65
2022/01/11 06:41:28;;;;;;;8.20;4.17;;;;;;;-4.59;100.00;100518.59;1778148;81;21028;-66
2022/01/11 06:43:54;;;;;;;7.83;3.83;;;;;;;-4.57;100.00;100524.56;1775592;81;21046;-65
2022/01/11 06:46:23;;;;;;;7.53;4.03;;;;;;;-4.53;100.00;100528.58;1778247;81;21014;-66
2022/01/11 06:48:51;;;;;;;6.80;3.47;;;;;;;-4.54;100.00;100528.27;1778188;81;21042;-66
2022/01/11 06:51:18;;;;;;;;;;;;;;;-4.50;100.00;100530.12;1780104;81;21556;-66
2022/01/11 06:53:47;;;;;;;4.87;2.95;;;;;;;-4.47;100.00;100526.30;1770440;80;20399;-65
2022/01/11 06:56:13;;;;;;;;;;;;;;;-4.48;100.00;100536.09;1752033;81;21062;-65
2022/01/11 06:58:40;;;;;;;7.30;3.90;;;;;;;-4.48;100.00;100532.59;1775534;79;20392;-66
2022/01/11 07:01:07;;;;;;;6.10;3.35;;;;;;;-4.49;100.00;100534.42;1775197;81;21742;-66
2022/01/11 07:03:34;;;;;;;8.08;3.35;;;;;;;-4.47;100.00;100540.92;1768060;81;21020;-66
2022/01/11 07:06:11;;;;;;;5.00;2.45;;;;;;;-4.46;100.00;100543.92;1766386;80;21593;-63
2022/01/11 07:08:38;;;;;;;5.47;2.50;;;;;;;-4.41;100.00;100547.77;1732716;81;21011;-65
2022/01/11 07:11:05;;;;;;;4.67;2.52;;;;;;;-4.37;100.00;100548.30;1759333;81;20987;-65
2022/01/11 07:13:33;;;;;;;4.33;2.22;;;;;;;-4.34;100.00;100548.81;1756799;81;21062;-65
2022/01/11 07:15:59;;;;;;;6.12;2.67;;;;;;;-4.34;100.00;100547.98;1748526;81;21049;-66
2022/01/11 07:18:26;;;;;;;5.40;3.20;;;;;;;-4.31;100.00;100551.16;1775658;81;21549;-66
2022/01/11 07:20:54;;;;;;;5.22;2.72;;;;;;;-4.28;100.00;100544.68;1738443;81;20988;-65
2022/01/11 07:23:23;;;;;;;5.15;2.42;;;;;;;-4.28;100.00;100547.34;1776732;81;21124;-66
2022/01/11 07:25:49;;;;;;;4.58;2.42;;;;;;;-4.27;100.00;100548.53;1780988;80;21553;-66
2022/01/11 07:28:15;;;;;;;5.92;2.98;;;;;;;-4.23;100.00;100545.06;1751890;82;21068;-66
2022/01/11 07:30:43;;;;;;;5.25;2.80;;;;;;;-4.20;100.00;100551.39;1722989;83;21054;-66
2022/01/11 07:33:09;;;;;;;5.40;2.98;;;;;;;-4.17;100.00;100552.40;1677100;83;21670;-66
2022/01/11 07:35:36;;;;;;;5.95;2.85;;;;;;;-4.15;100.00;100545.11;1710968;83;21031;-65
2022/01/11 07:38:03;;;;;;;6.75;3.00;;;;;;;-4.18;100.00;100544.91;1746816;82;21611;-65
2022/01/11 07:40:30;;;;;;;6.60;3.17;;;;;;;-4.18;100.00;100545.44;1767456;80;21003;-65
2022/01/11 07:42:58;;;;;;;6.53;2.92;;;;;;;-4.16;100.00;100553.58;1775322;80;21056;-65
2022/01/11 07:45:38;;;;;;;4.87;2.42;;;;;;;-4.07;100.00;100549.13;1757186;80;21034;-65
2022/01/11 07:48:06;;;;;;;6.30;2.90;;;;;;;-4.05;100.00;100553.81;1772014;80;21100;-65
2022/01/11 07:50:35;;;;;;;5.10;2.90;;;;;;;-4.07;100.00;100560.60;1784033;80;21589;-65
2022/01/11 07:53:05;;;;;;;;;;;;;;;-4.06;100.00;100562.77;1789366;80;21040;-65
2022/01/11 07:55:33;;;;;;;6.95;3.20;;;;;;;-4.05;100.00;100570.61;1780988;80;20430;-66
2022/01/11 07:57:59;;;;;;;;;;;;;;;-4.09;100.00;100565.75;1788315;80;21091;-65
2022/01/11 08:00:26;;;;;;;9.83;4.28;;;;;;;-4.07;100.00;100565.92;1775493;80;20134;-66
2022/01/11 08:02:52;;;;;;;6.20;3.40;;;;;;;-4.10;100.00;100567.56;1768970;80;21608;-65
2022/01/11 08:05:29;;;;;;;6.15;3.10;;;;;;;-4.10;100.00;100568.06;1762744;80;21035;-66
2022/01/11 08:07:56;;;;;;;;;;;;;;;-4.08;100.00;100570.08;1777306;80;21440;-67
2022/01/11 08:10:24;;;;;;;;;;;;;;;-4.08;100.00;100561.61;1787728;80;20104;-66
2022/01/11 08:12:51;;;;;;;5.67;2.80;;;;;;;-4.13;100.00;100559.08;1770136;80;20138;-66
2022/01/11 08:15:18;;;;;;;;;;;;;;;-4.16;100.00;100565.55;1763342;80;21500;-65
2022/01/11 08:17:46;;;;;;;7.12;3.27;;;;;;;-4.11;100.00;100561.09;1784033;80;20144;-66
2022/01/11 08:20:13;;;;;;;6.65;3.47;;;;;;;-4.11;100.00;100572.54;1774824;80;21010;-65
2022/01/11 08:22:40;;;;;;;7.25;3.42;;;;;;;-4.09;100.00;100571.06;1779261;80;21000;-66
2022/01/11 08:25:07;;;;;;;6.03;3.00;;;;;;;-4.08;100.00;100562.95;1775553;80;21023;-65
2022/01/11 08:27:34;;;;;;;6.30;3.70;;;;;;;-4.02;100.00;100565.45;1771786;79;21043;-65
2022/01/11 08:30:01;;;;;;;6.75;3.83;;;;;;;-3.98;100.00;100559.33;1772734;81;21522;-66
2022/01/11 08:32:29;;;;;;;9.33;3.60;;;;;;;-3.94;100.00;100567.33;1769549;81;20956;-66
2022/01/11 08:34:56;;;;;;;9.13;4.42;;;;;;;-3.93;100.00;100571.14;1770070;81;21443;-65
2022/01/11 08:37:22;;;;;;;6.45;3.80;;;;;;;-3.93;100.00;100563.16;1741368;81;21039;-66
2022/01/11 08:39:49;;;;;;;9.73;3.58;;;;;;;-3.93;100.00;100569.81;1755126;80;21597;-66
2022/01/11 08:42:16;;;;;;;6.40;3.50;;;;;;;-3.91;100.00;100571.83;1779624;80;21031;-66
2022/01/11 08:44:45;;;;;;;8.20;3.40;;;;;;;-3.91;100.00;100565.19;1699204;84;21531;-66
2022/01/11 08:47:14;;;;;;;7.97;3.47;;;;;;;-3.91;100.00;100565.67;1689705;84;21059;-65
2022/01/11 08:49:41;;;;;;;7.58;3.58;;;;;;;-3.85;100.00;100563.70;1733384;82;20999;-66
2022/01/11 08:52:08;;;;;;;6.12;3.50;;;;;;;-3.83;100.00;100569.72;1773825;81;21030;-66
2022/01/11 08:54:37;;;;;;;7.45;3.92;;;;;;;-3.83;100.00;100565.23;1776315;81;21400;-66
2022/01/11 08:57:04;;;;;;;6.72;3.42;;;;;;;-3.84;100.00;100564.89;1778023;81;21016;-66
2022/01/11 08:59:32;;;;;;;5.75;3.27;;;;;;;-3.80;100.00;100566.73;1778351;81;21415;-66
2022/01/11 09:02:00;;;;;;;;;;;;;;;-3.76;100.00;100570.25;1754181;81;20982;-66
2022/01/11 09:04:28;;;;;;;6.00;2.90;;;;;;;-3.74;100.00;100575.40;1748897;81;20124;-66
2022/01/11 09:06:58;;;;;;;5.83;3.10;;;;;;;-3.78;100.00;100570.05;1767154;81;20991;-66
2022/01/11 09:09:26;;;;;;;5.75;2.85;;;;;;;-3.75;100.00;100573.72;1768395;81;20995;-66
2022/01/11 09:11:53;;;;;;;6.67;3.10;;;;;;;-3.74;100.00;100570.91;1758954;81;20979;-66
2022/01/11 09:14:19;;;;;;;4.85;2.80;;;;;;;-3.77;100.00;100573.90;1746175;82;21508;-66
2022/01/11 09:16:46;;;;;;;7.05;3.27;;;;;;;-3.74;100.00;100564.27;1724824;82;21031;-66
2022/01/11 09:19:13;;;;;;;6.22;2.87;;;;;;;-3.71;100.00;100565.27;1746362;82;21007;-65
2022/01/11 09:21:39;;;;;;;4.80;2.72;;;;;;;-3.69;100.00;100564.62;1760156;81;21015;-66
2022/01/11 09:24:08;;;;;;;8.95;2.85;;;;;;;-3.62;100.00;100566.98;1762646;81;21086;-66
2022/01/11 09:26:37;;;;;;;5.87;3.27;;;;;;;-3.60;100.00;100572.13;1771268;81;21373;-66
2022/01/11 09:29:03;;;;;;;5.08;2.65;;;;;;;-3.61;100.00;100569.96;1773940;81;21085;-65
2022/01/11 09:31:30;;;;;;;5.83;2.62;;;;;;;-3.59;100.00;100571.98;1752405;80;20991;-66
2022/01/11 09:33:59;;;;;;;5.70;2.98;;;;;;;-3.57;100.00;100563.82;1758226;80;21344;-65
2022/01/11 09:36:26;;;;;;;6.15;3.27;;;;;;;-3.58;100.00;100577.62;1758002;80;21058;-66
2022/01/11 09:40:52;;;;;;;6.53;3.33;;;;;;;-3.55;100.00;100566.68;1913610;74;23158;-64
2022/01/11 09:43:21;;;;;;;7.17;3.42;;;;;;;-3.61;100.00;100574.45;1867329;76;21098;-64
2022/01/11 09:45:49;;;;;;;6.67;3.22;;;;;;;-3.59;100.00;100573.80;1812528;79;21015;-65
2022/01/11 09:48:21;;;;;;;7.55;3.60;;;;;;;-3.62;100.00;100575.46;1798877;78;21039;-65
2022/01/11 09:50:48;;;;;;;7.67;3.80;;;;;;;-3.58;100.00;100577.62;1796144;79;20983;-64
2022/01/11 09:53:14;;;;;;;8.38;3.98;;;;;;;-3.52;100.00;100565.52;1812588;78;21009;-65
2022/01/11 09:55:44;;;;;;;7.30;3.92;;;;;;;-3.47;100.00;100568.51;1798749;80;21007;-64
2022/01/11 09:58:12;;;;;;;7.40;4.05;;;;;;;-3.37;100.00;100576.38;1798143;79;21537;-65
2022/01/11 10:00:50;;;;;;;7.50;3.92;;;;;;;-3.33;100.00;100573.73;1784457;80;21619;-65
2022/01/11 10:03:24;;;;;;;8.55;4.25;;;;;;;-3.36;100.00;100570.04;1781617;79;21406;-65
2022/01/11 10:05:52;;;;;;;7.92;4.25;;;;;;;-3.36;100.00;100565.55;1783772;80;21072;-66
2022/01/11 10:08:25;;;;;;;7.65;4.10;;;;;;;-3.30;100.00;100568.08;1784516;79;21547;-64
2022/01/11 10:10:54;;;;;;;7.58;3.90;;;;;;;-3.28;100.00;100569.58;1788267;80;21058;-65
2022/01/11 10:13:39;;;;;;;8.15;4.15;;;;;;;-3.21;100.00;100567.93;1789083;79;21008;-65
2022/01/11 10:16:27;;;;;;;5.28;3.22;;;;;;;-3.15;100.00;100569.09;1786812;80;21008;-65
2022/01/11 10:18:55;;;;;;;7.92;3.45;;;;;;;-3.02;100.00;100568.98;1730968;83;21070;-65
2022/01/11 10:21:41;;;;;;;5.97;3.42;;;;;;;-3.03;100.00;100567.80;1735076;82;21382;-65
2022/01/11 10:24:27;;;;;;;5.42;3.45;;;;;;;-2.99;100.00;100564.30;1757676;81;21040;-65
2022/01/11 10:26:56;;;;;;;5.87;3.00;;;;;;;-2.95;100.00;100561.16;1739589;81;20970;-65
2022/01/11 10:29:41;;;;;;;6.85;3.58;;;;;;;-2.96;100.00;100563.48;1757824;81;21002;-65
2022/01/11 10:32:23;;;;;;;6.63;3.90;;;;;;;-2.90;100.00;100568.14;1738822;81;21029;-66
2022/01/11 10:34:55;;;;;;;6.58;3.67;;;;;;;-2.91;100.00;100567.83;1757571;81;21022;-66
2022/01/11 10:37:31;;;;;;;7.60;3.70;;;;;;;-2.93;100.00;100561.81;1739841;82;21556;-66
2022/01/11 10:40:17;;;;;;;6.20;3.67;;;;;;;-2.93;100.00;100563.14;1758010;81;20994;-66
2022/01/11 10:42:50;;;;;;;6.42;3.80;;;;;;;-2.97;100.00;100568.47;1739090;81;21045;-66
2022/01/11 10:45:26;;;;;;;7.25;4.00;;;;;;;-3.06;100.00;100568.13;1756702;81;21584;-65
2022/01/11 10:47:57;;;;;;;7.25;3.95;;;;;;;-3.05;100.00;100563.95;1739133;81;21021;-66
2022/01/11 10:50:34;;;;;;;8.80;4.42;;;;;;;-2.99;100.00;100565.64;1751660;82;21089;-65
2022/01/11 10:53:01;;;;;;;9.05;4.45;;;;;;;-2.93;100.00;100564.97;1754416;80;21515;-66
2022/01/11 10:55:32;;;;;;;8.35;4.00;;;;;;;-2.79;100.00;100566.98;1770685;81;21000;-65
2022/01/11 10:58:05;;;;;;;9.48;4.58;;;;;;;-2.72;100.00;100562.16;1732220;81;21081;-65
2022/01/11 11:00:35;;;;;;;7.97;4.40;;;;;;;-2.65;100.00;100559.66;1737196;82;21035;-65
2022/01/11 11:03:08;;;;;;;7.42;3.80;;;;;;;-2.65;100.00;100562.32;1741730;79;21082;-65
2022/01/11 11:05:51;;;;;;;6.10;3.77;;;;;;;-2.69;100.00;100556.98;1771004;81;21081;-65
2022/01/11 11:08:26;;;;;;;8.45;4.35;;;;;;;-2.74;100.00;100563.33;1767475;81;21029;-65
2022/01/11 11:11:03;;;;;;;7.15;4.08;;;;;;;-2.84;100.00;100558.67;1770234;80;21029;-65
2022/01/11 11:13:36;;;;;;;7.65;4.28;;;;;;;-2.84;100.00;100565.33;1771621;79;21068;-65
2022/01/11 11:16:18;;;;;;;7.62;4.17;;;;;;;-2.84;100.00;100560.84;1796685;79;20995;-65
2022/01/11 11:18:55;;;;;;;5.95;3.60;;;;;;;-2.83;100.00;100573.14;1797700;78;21114;-66
2022/01/11 11:21:27;;;;;;;7.35;3.98;;;;;;;-2.88;100.00;100570.66;1778385;80;21514;-66
2022/01/11 11:24:06;;;;;;;7.87;3.90;;;;;;;-2.93;100.00;100563.64;1778519;78;21454;-65
2022/01/11 11:26:44;;;;;;;5.80;3.37;;;;;;;-2.99;100.00;100561.14;1773924;80;21048;-65
2022/01/11 11:29:11;;;;;;;7.97;3.58;;;;;;;-2.94;100.00;100562.00;1774106;81;21096;-65